Weather at Hobart International Airport

Public forecast

Using degrees Celsius for public forecast. Weather courtesy of forecast.io.

Current aviation weather report (METAR) for Hobart International Airport

Retrieved 2020/09/23 09:00 UTC (5 minutes ago):

YMHB 230900Z 19016KT 9999 FEW020 SCT036 10/05 Q1005 RF000/0014

Aviation forecast (TAF) for Hobart International Airport

Forecast is more than 12 hours old.

Retrieved 2020/09/22 18:36 UTC (14 hours ago):

TAF YMHB 221703Z 2218/2318 34012KT 9999 SCT035 FM222200 30012KT 9999 BKN040 FM230200 22018G30KT 9999 -SHRA SCT020 BKN040 BECMG 2308/2310 29010KT 9999 NSW SCT040 INTER 2302/2307 5000 SHRA BKN015